createdAt,value
2019-04-03T00:00:13.461Z,23.2
2019-04-03T00:01:05.936Z,23.2
2019-04-03T00:01:53.366Z,23.2
2019-04-03T00:02:42.921Z,23.2
2019-04-03T00:03:36.053Z,23.2
2019-04-03T00:04:22.919Z,23.2
2019-04-03T00:05:13.303Z,23.2
2019-04-03T00:06:06.640Z,23.2
2019-04-03T00:06:52.483Z,23.1
2019-04-03T00:07:43.999Z,23.1
2019-04-03T00:08:48.133Z,23.2
2019-04-03T00:09:22.636Z,23.1
2019-04-03T00:10:14.133Z,23.1
2019-04-03T00:11:04.585Z,23.1
2019-04-03T00:11:53.405Z,23.1
2019-04-03T00:12:47.642Z,23.1
2019-04-03T00:13:34.700Z,23.1
2019-04-03T00:14:24.015Z,23.1
2019-04-03T00:15:16.817Z,23.1
2019-04-03T00:16:04.190Z,23.1
2019-04-03T00:16:54.569Z,23.1
2019-04-03T00:17:47.775Z,23.1
2019-04-03T00:18:34.435Z,23.1
2019-04-03T00:19:24.438Z,23.1
2019-04-03T00:20:13.647Z,23.1
2019-04-03T00:21:04.450Z,23.1
2019-04-03T00:21:57.202Z,23.1
2019-04-03T00:22:52.465Z,23.1
2019-04-03T00:23:34.874Z,23.1
2019-04-03T00:24:28.061Z,23.1
2019-04-03T00:25:14.839Z,23.1
2019-04-03T00:26:05.422Z,23.1
2019-04-03T00:26:58.222Z,23.1
2019-04-03T00:27:44.874Z,23.1
2019-04-03T00:28:34.822Z,23.1
2019-04-03T00:29:28.323Z,23.1
2019-04-03T00:30:15.792Z,23.1
2019-04-03T00:31:05.897Z,23.1
2019-04-03T00:31:59.180Z,23.1
2019-04-03T00:32:45.489Z,23.1
2019-04-03T00:33:35.016Z,23.1
2019-04-03T00:34:28.347Z,23.1
2019-04-03T00:35:15.384Z,23.1
2019-04-03T00:36:06.068Z,23.1
2019-04-03T00:36:59.162Z,23.1
2019-04-03T00:37:46.100Z,23.1
2019-04-03T00:38:36.117Z,23.1
2019-04-03T00:39:28.761Z,23.1
2019-04-03T00:40:16.631Z,23.1
2019-04-03T00:41:06.216Z,23.1
2019-04-03T00:41:58.721Z,23.1
2019-04-03T00:42:46.124Z,23.1
2019-04-03T00:43:36.365Z,23.1
2019-04-03T00:44:29.421Z,23.1
2019-04-03T00:45:16.340Z,23.1
2019-04-03T00:46:05.920Z,23.1
2019-04-03T00:46:59.600Z,23.1
2019-04-03T00:47:46.093Z,23.1
2019-04-03T00:48:36.900Z,23
2019-04-03T00:49:29.844Z,23
2019-04-03T00:50:16.991Z,23.1
2019-04-03T00:51:07.663Z,23
2019-04-03T00:52:00.070Z,23.1
2019-04-03T00:52:47.428Z,23
2019-04-03T00:53:36.928Z,23
2019-04-03T00:54:33.703Z,23
2019-04-03T00:55:17.837Z,23
2019-04-03T00:56:07.303Z,23
2019-04-03T00:57:00.305Z,23
2019-04-03T00:57:48.145Z,23
2019-04-03T00:58:37.784Z,23
2019-04-03T00:59:30.744Z,23
2019-04-03T01:00:17.394Z,23
2019-04-03T01:01:07.878Z,23
2019-04-03T01:02:00.505Z,23
2019-04-03T01:02:47.387Z,23
2019-04-03T01:03:38.035Z,23
2019-04-03T01:04:30.738Z,23
2019-04-03T01:05:18.474Z,23
2019-04-03T01:06:07.885Z,23
2019-04-03T01:07:00.925Z,23
2019-04-03T01:07:48.909Z,23
2019-04-03T01:08:37.882Z,23
2019-04-03T01:09:31.565Z,22.9
2019-04-03T01:10:18.097Z,22.9
2019-04-03T01:11:07.924Z,22.9
2019-04-03T01:12:01.147Z,22.9
2019-04-03T01:12:48.364Z,22.9
2019-04-03T01:13:38.831Z,22.9
2019-04-03T01:14:32.139Z,22.9
2019-04-03T01:15:19.205Z,22.9
2019-04-03T01:16:09.076Z,23
2019-04-03T01:16:59.261Z,22.9
2019-04-03T01:17:48.720Z,22.9
2019-04-03T01:18:41.011Z,22.9
2019-04-03T01:19:29.200Z,22.9
2019-04-03T01:20:17.942Z,22.9
2019-04-03T01:21:11.919Z,22.9
2019-04-03T01:21:58.627Z,22.9
2019-04-03T01:22:48.551Z,22.9
2019-04-03T01:23:42.143Z,22.9
2019-04-03T01:24:29.181Z,22.9
2019-04-03T01:25:18.352Z,22.9
2019-04-03T01:26:12.901Z,22.9
2019-04-03T01:27:00.176Z,22.9
2019-04-03T01:27:50.074Z,22.9
2019-04-03T01:28:43.403Z,22.9
2019-04-03T01:29:29.327Z,22.9
2019-04-03T01:30:21.407Z,22.9
2019-04-03T01:31:09.501Z,22.9
2019-04-03T01:31:59.941Z,22.9
2019-04-03T01:32:53.181Z,22.9
2019-04-03T01:33:40.410Z,22.9
2019-04-03T01:34:30.214Z,22.9
2019-04-03T01:35:23.459Z,22.9
2019-04-03T01:36:10.016Z,22.9
2019-04-03T01:36:59.951Z,22.9
2019-04-03T01:37:52.880Z,22.9
2019-04-03T01:38:41.092Z,22.9
2019-04-03T01:39:29.653Z,22.9
2019-04-03T01:40:23.376Z,22.9
2019-04-03T01:41:10.586Z,22.9
2019-04-03T01:42:00.503Z,22.9
2019-04-03T01:42:54.053Z,22.9
2019-04-03T01:43:40.112Z,22.9
2019-04-03T01:44:31.910Z,22.9
2019-04-03T01:45:20.648Z,22.9
2019-04-03T01:46:10.858Z,22.9
2019-04-03T01:47:03.530Z,22.9
2019-04-03T01:47:50.073Z,22.9
2019-04-03T01:48:40.724Z,22.9
2019-04-03T01:49:34.464Z,22.9
2019-04-03T01:50:21.162Z,22.9
2019-04-03T01:51:10.426Z,22.9
2019-04-03T01:52:04.868Z,22.9
2019-04-03T01:52:50.517Z,22.9
2019-04-03T01:53:41.332Z,22.9
2019-04-03T01:54:34.534Z,22.9
2019-04-03T01:55:20.955Z,22.9
2019-04-03T01:56:12.501Z,22.9
2019-04-03T01:57:02.349Z,22.9
2019-04-03T01:57:51.493Z,22.9
2019-04-03T01:58:42.698Z,22.9
2019-04-03T01:59:32.210Z,22.9
2019-04-03T02:00:21.394Z,22.9
2019-04-03T02:01:14.317Z,22.9
2019-04-03T02:02:02.077Z,22.9
2019-04-03T02:02:52.159Z,22.9
2019-04-03T02:03:45.162Z,22.9
2019-04-03T02:04:32.277Z,22.9
2019-04-03T02:05:21.833Z,22.9
2019-04-03T02:06:15.494Z,22.9
2019-04-03T02:07:01.911Z,22.9
2019-04-03T02:07:52.419Z,22.9
2019-04-03T02:08:44.799Z,22.9
2019-04-03T02:09:31.944Z,22.9
2019-04-03T02:10:24.249Z,22.9
2019-04-03T02:11:12.408Z,23
2019-04-03T02:12:03.168Z,22.9
2019-04-03T02:12:56.521Z,22.9
2019-04-03T02:13:42.893Z,23
2019-04-03T02:14:32.741Z,23
2019-04-03T02:15:26.095Z,22.9
2019-04-03T02:16:12.809Z,23
2019-04-03T02:17:03.011Z,23
2019-04-03T02:17:55.981Z,22.9
2019-04-03T02:18:44.028Z,23
2019-04-03T02:19:34.003Z,23
2019-04-03T02:20:27.234Z,23
2019-04-03T02:21:13.558Z,23
2019-04-03T02:22:04.875Z,23
2019-04-03T02:22:53.100Z,23
2019-04-03T02:23:43.535Z,23
2019-04-03T02:24:37.561Z,23
2019-04-03T02:25:23.521Z,23
2019-04-03T02:26:13.846Z,23
2019-04-03T02:27:06.210Z,23
2019-04-03T02:27:52.922Z,23
2019-04-03T02:28:42.605Z,23
2019-04-03T02:29:33.083Z,23
2019-04-03T02:30:24.231Z,23
2019-04-03T02:31:20.085Z,23
2019-04-03T02:32:03.952Z,23
2019-04-03T02:33:00.028Z,23
2019-04-03T02:33:44.375Z,23
2019-04-03T02:34:40.014Z,23
2019-04-03T02:35:24.441Z,23
2019-04-03T02:36:19.178Z,23.1
2019-04-03T02:37:04.548Z,23.1
2019-04-03T02:37:56.779Z,23
2019-04-03T02:38:44.708Z,23
2019-04-03T02:39:34.317Z,23
2019-04-03T02:40:24.821Z,23.1
2019-04-03T02:41:14.101Z,23
2019-04-03T02:42:11.090Z,23.1
2019-04-03T02:42:54.904Z,23.1
2019-04-03T02:43:51.020Z,23
2019-04-03T02:44:35.292Z,23
2019-04-03T02:45:31.077Z,23
2019-04-03T02:46:15.767Z,23
2019-04-03T02:47:07.893Z,23
2019-04-03T02:47:56.584Z,23.1
2019-04-03T02:48:44.751Z,23.1
2019-04-03T02:49:34.492Z,23.1
2019-04-03T02:50:26.742Z,23.1
2019-04-03T02:51:16.932Z,23
2019-04-03T02:52:06.134Z,23.1
2019-04-03T02:53:01.911Z,23
2019-04-03T02:53:46.915Z,23
2019-04-03T02:54:42.019Z,23.1
2019-04-03T02:55:25.803Z,23.1
2019-04-03T02:56:19.895Z,23.1
2019-04-03T02:57:06.327Z,23.1
2019-04-03T02:58:12.691Z,23.1
2019-04-03T02:58:46.329Z,23
2019-04-03T02:59:36.805Z,23.1
2019-04-03T03:00:27.133Z,23.1
2019-04-03T03:01:16.960Z,23.1
2019-04-03T03:02:07.119Z,23.1
2019-04-03T03:02:56.574Z,23.1
2019-04-03T03:03:51.982Z,23.1
2019-04-03T03:07:17.686Z,23.1
2019-04-03T03:08:12.049Z,23
2019-04-03T03:08:57.886Z,23.1
2019-04-03T03:09:53.625Z,23.1
2019-04-03T03:10:37.695Z,23.1
2019-04-03T03:11:31.732Z,23.1
2019-04-03T03:12:17.196Z,23.1
2019-04-03T03:13:09.341Z,23.1
2019-04-03T03:13:58.468Z,23.1
2019-04-03T03:14:48.200Z,23
2019-04-03T03:15:38.972Z,23.1
2019-04-03T03:16:27.971Z,23
2019-04-03T03:17:21.096Z,23.1
2019-04-03T03:18:09.234Z,23
2019-04-03T03:19:03.428Z,23
2019-04-03T03:19:48.542Z,23.1
2019-04-03T03:20:44.107Z,23
2019-04-03T03:21:28.534Z,23.1
2019-04-03T03:22:24.409Z,23
2019-04-03T03:23:07.593Z,23.1
2019-04-03T03:24:03.831Z,23.1
2019-04-03T03:24:48.369Z,23
2019-04-03T03:25:39.945Z,23
2019-04-03T03:26:28.042Z,23
2019-04-03T03:27:18.463Z,23.1
2019-04-03T03:28:08.519Z,23.1
2019-04-03T03:29:19.654Z,23
2019-04-03T03:29:48.934Z,23
2019-04-03T03:31:15.133Z,23.1
2019-04-03T03:32:50.599Z,23
2019-04-03T03:34:07.920Z,23
2019-04-03T03:35:56.124Z,23
2019-04-03T03:36:33.403Z,23
2019-04-03T03:37:15.725Z,23.1
2019-04-03T03:37:51.974Z,23
2019-04-03T03:38:48.065Z,23
2019-04-03T03:39:33.111Z,23
2019-04-03T03:40:23.678Z,23
2019-04-03T03:41:13.175Z,23
2019-04-03T03:42:06.170Z,23.1
2019-04-03T03:42:53.663Z,23
2019-04-03T03:43:46.276Z,23
2019-04-03T03:44:34.864Z,23.1
2019-04-03T03:45:28.316Z,23
2019-04-03T03:46:13.929Z,23
2019-04-03T03:47:08.587Z,23.1
2019-04-03T03:47:53.888Z,23
2019-04-03T03:48:51.976Z,23
2019-04-03T03:49:34.638Z,23
2019-04-03T03:50:31.815Z,23
2019-04-03T03:51:13.646Z,23
2019-04-03T03:52:10.572Z,23
2019-04-03T03:52:53.812Z,23
2019-04-03T03:53:50.877Z,23
2019-04-03T03:54:34.899Z,23
2019-04-03T03:55:30.328Z,23
2019-04-03T03:56:15.238Z,23
2019-04-03T03:57:12.154Z,23
2019-04-03T03:57:54.030Z,23
2019-04-03T03:58:50.009Z,23
2019-04-03T03:59:34.468Z,23
2019-04-03T04:00:29.857Z,23
2019-04-03T04:01:14.521Z,23
2019-04-03T04:02:11.509Z,23
2019-04-03T04:02:55.278Z,23
2019-04-03T04:03:49.437Z,23
2019-04-03T04:04:35.490Z,23
2019-04-03T04:05:29.998Z,23
2019-04-03T04:06:14.529Z,23
2019-04-03T04:07:10.582Z,23
2019-04-03T04:07:55.644Z,23
2019-04-03T04:08:51.122Z,23
2019-04-03T04:09:36.062Z,23
2019-04-03T04:10:36.458Z,23
2019-04-03T04:11:16.075Z,23
2019-04-03T04:12:11.471Z,23
2019-04-03T04:12:55.577Z,23
2019-04-03T04:13:52.481Z,23
2019-04-03T04:14:36.062Z,23
2019-04-03T04:15:31.902Z,23
2019-04-03T04:16:15.642Z,23
2019-04-03T04:17:20.073Z,23
2019-04-03T04:17:57.893Z,23
2019-04-03T04:18:46.700Z,23
2019-04-03T04:19:38.282Z,23
2019-04-03T04:20:26.651Z,23
2019-04-03T04:21:18.279Z,23
2019-04-03T04:22:06.979Z,23
2019-04-03T04:22:58.999Z,23
2019-04-03T04:23:45.842Z,23
2019-04-03T04:24:36.327Z,23
2019-04-03T04:25:28.088Z,23
2019-04-03T04:26:16.246Z,23
2019-04-03T04:27:09.056Z,23
2019-04-03T04:27:56.809Z,23
2019-04-03T04:28:47.368Z,23
2019-04-03T04:29:35.739Z,23
2019-04-03T04:30:26.341Z,23
2019-04-03T04:31:18.616Z,23.1
2019-04-03T04:32:07.333Z,23.1
2019-04-03T04:32:57.156Z,23.1
2019-04-03T04:33:49.819Z,23.1
2019-04-03T04:34:37.170Z,23.1
2019-04-03T04:35:29.042Z,23.1
2019-04-03T04:36:16.778Z,23.1
2019-04-03T04:37:09.309Z,23.1
2019-04-03T04:38:01.186Z,23.1
2019-04-03T04:38:46.697Z,23.1
2019-04-03T04:39:36.983Z,23.1
2019-04-03T04:40:26.783Z,23.1
2019-04-03T04:41:17.045Z,23.1
2019-04-03T04:42:11.255Z,23.1
2019-04-03T04:42:57.186Z,23.1
2019-04-03T04:43:48.088Z,23.1
2019-04-03T04:44:36.745Z,23.1
2019-04-03T04:45:27.225Z,23.1
2019-04-03T04:46:20.345Z,23.1
2019-04-03T04:47:07.523Z,23.1
2019-04-03T04:47:57.762Z,23.1
2019-04-03T04:48:46.758Z,23.1
2019-04-03T04:49:37.143Z,23.1
2019-04-03T04:50:31.169Z,23.1
2019-04-03T04:51:18.304Z,23.1
2019-04-03T04:52:08.287Z,23
2019-04-03T04:53:02.063Z,23.1
2019-04-03T04:53:47.787Z,23
2019-04-03T04:54:37.460Z,23
2019-04-03T04:55:34.961Z,23
2019-04-03T04:56:17.840Z,23
2019-04-03T04:57:10.780Z,23
2019-04-03T04:57:57.672Z,23
2019-04-03T04:58:49.895Z,23
2019-04-03T04:59:46.031Z,23
2019-04-03T05:00:31.710Z,23
2019-04-03T05:01:21.991Z,23
2019-04-03T05:02:08.967Z,23
2019-04-03T05:03:02.097Z,23
2019-04-03T05:03:49.017Z,23
2019-04-03T05:04:38.132Z,23
2019-04-03T05:05:35.241Z,23
2019-04-03T05:06:19.601Z,23
2019-04-03T05:07:09.834Z,22.9
2019-04-03T05:08:01.847Z,23
2019-04-03T05:08:49.203Z,23
2019-04-03T05:09:41.802Z,23
2019-04-03T05:10:29.085Z,22.9
2019-04-03T05:11:18.624Z,22.9
2019-04-03T05:12:12.998Z,22.9
2019-04-03T05:12:59.039Z,22.9
2019-04-03T05:13:52.394Z,23
2019-04-03T05:14:39.459Z,23
2019-04-03T05:15:31.027Z,23
2019-04-03T05:16:26.538Z,23
2019-04-03T05:17:08.992Z,23.1
2019-04-03T05:18:03.371Z,23.1
2019-04-03T05:18:49.524Z,23.1
2019-04-03T05:19:39.876Z,23.1
2019-04-03T05:20:30.743Z,23.1
2019-04-03T05:21:23.358Z,23.1
2019-04-03T05:22:10.373Z,23.2
2019-04-03T05:23:01.691Z,23.2
2019-04-03T05:23:50.018Z,23.2
2019-04-03T05:24:40.633Z,23.2
2019-04-03T05:25:33.815Z,23.2
2019-04-03T05:26:24.040Z,23.2
2019-04-03T05:27:13.630Z,23.2
2019-04-03T05:27:59.862Z,23.2
2019-04-03T05:29:05.784Z,23.2
2019-04-03T05:29:40.603Z,23.2
2019-04-03T05:30:30.176Z,23.1
2019-04-03T05:31:21.505Z,23.1
2019-04-03T05:32:15.447Z,23.1
2019-04-03T05:33:01.746Z,23.1
2019-04-03T05:33:50.513Z,23.1
2019-04-03T05:34:44.701Z,23.1
2019-04-03T05:35:31.132Z,23.1
2019-04-03T05:36:24.154Z,23.1
2019-04-03T05:37:16.053Z,23.1
2019-04-03T05:38:00.615Z,23.1
2019-04-03T05:38:56.224Z,23.1
2019-04-03T05:39:40.705Z,23.1
2019-04-03T05:40:32.709Z,23.1
2019-04-03T05:41:21.810Z,23.1
2019-04-03T05:42:11.842Z,23
2019-04-03T05:43:04.450Z,23
2019-04-03T05:43:51.237Z,23
2019-04-03T05:44:41.667Z,23
2019-04-03T05:45:34.400Z,23
2019-04-03T05:46:25.820Z,23
2019-04-03T05:47:13.764Z,22.9
2019-04-03T05:48:01.705Z,22.9
2019-04-03T05:48:54.937Z,22.9
2019-04-03T05:49:41.930Z,22.9
2019-04-03T05:50:37.109Z,22.9
2019-04-03T05:51:21.675Z,22.9
2019-04-03T05:52:11.312Z,22.9
2019-04-03T05:53:02.360Z,22.9
2019-04-03T05:53:55.303Z,22.9
2019-04-03T05:54:48.992Z,22.9
2019-04-03T05:55:32.318Z,22.9
2019-04-03T05:56:22.096Z,22.9
2019-04-03T05:57:15.334Z,22.9
2019-04-03T05:59:03.694Z,22.9
2019-04-03T05:59:15.823Z,22.8
2019-04-03T06:00:12.561Z,22.9
2019-04-03T06:01:15.611Z,22.9
2019-04-03T06:01:52.046Z,22.8
2019-04-03T06:02:35.712Z,22.8
2019-04-03T06:05:23.262Z,22.8
2019-04-03T06:06:07.192Z,17.6
2019-04-03T06:06:56.696Z,20.4
2019-04-03T06:07:49.771Z,26.8
2019-04-03T06:08:42.125Z,30.2
2019-04-03T06:09:29.844Z,29.7
2019-04-03T06:10:16.911Z,26.6
2019-04-03T06:11:14.896Z,23.7
2019-04-03T06:11:58.237Z,21.7
2019-04-03T06:12:51.959Z,21.3
2019-04-03T06:13:37.995Z,21.4
2019-04-03T06:14:29.600Z,22.1
2019-04-03T06:15:18.456Z,23.1
2019-04-03T06:16:08.598Z,23.8
2019-04-03T06:17:01.938Z,24.3
2019-04-03T06:17:55.771Z,24.2
2019-04-03T06:18:38.623Z,23.9
2019-04-03T06:19:28.160Z,23.6
2019-04-03T06:20:18.436Z,23.4
2019-04-03T06:21:08.875Z,23.4
2019-04-03T06:21:57.761Z,23.5
2019-04-03T06:22:53.066Z,23.7
2019-04-03T06:23:38.647Z,24
2019-04-03T06:24:31.708Z,24.3
2019-04-03T06:25:21.031Z,24.4
2019-04-03T06:26:09.260Z,24.6
2019-04-03T06:26:58.080Z,24.7
2019-04-03T06:27:50.906Z,24.8
2019-04-03T06:28:39.072Z,24.9
2019-04-03T06:29:29.196Z,25.1
2019-04-03T06:30:19.075Z,25.1
2019-04-03T06:31:11.787Z,25.3
2019-04-03T06:32:01.803Z,25.5
2019-04-03T06:32:49.225Z,25.7
2019-04-03T06:33:42.178Z,25.9
2019-04-03T06:34:29.159Z,26
2019-04-03T06:35:21.016Z,26.1
2019-04-03T06:36:09.739Z,26.3
2019-04-03T06:37:00.156Z,26.4
2019-04-03T06:37:51.138Z,26.5
2019-04-03T06:38:39.857Z,26.6
2019-04-03T06:39:38.272Z,26.7
2019-04-03T06:40:20.261Z,26.9
2019-04-03T06:41:13.441Z,26.9
2019-04-03T06:42:00.539Z,27.1
2019-04-03T06:42:51.391Z,27.3
2019-04-03T06:43:40.126Z,27.4
2019-04-03T06:44:29.743Z,27.6
2019-04-03T06:45:22.241Z,27.7
2019-04-03T06:46:10.876Z,27.9
2019-04-03T06:47:05.786Z,28.1
2019-04-03T06:47:50.648Z,28.3
2019-04-03T06:48:42.773Z,28.4
2019-04-03T06:49:31.086Z,28.5
2019-04-03T06:50:24.138Z,28.6
2019-04-03T06:51:10.363Z,28.8
2019-04-03T06:52:01.176Z,29
2019-04-03T06:52:53.700Z,29.1
2019-04-03T06:53:41.410Z,29.3
2019-04-03T06:54:34.716Z,29.5
2019-04-03T06:55:20.803Z,29.6
2019-04-03T06:56:14.136Z,29.9
2019-04-03T06:57:01.564Z,30
2019-04-03T06:57:51.353Z,30.1
2019-04-03T06:58:50.862Z,30.3
2019-04-03T06:59:31.018Z,30.5
2019-04-03T07:00:21.395Z,30.6
2019-04-03T07:01:10.836Z,30.8
2019-04-03T07:02:01.931Z,31
2019-04-03T07:02:51.520Z,31.2
2019-04-03T07:05:17.663Z,31.6
2019-04-03T07:06:07.129Z,31.9
2019-04-03T07:07:01.034Z,32.1
2019-04-03T07:07:47.441Z,32.3
2019-04-03T07:08:45.943Z,32.4
2019-04-03T07:09:42.859Z,32.6
2019-04-03T07:10:31.517Z,32.8
2019-04-03T07:11:07.002Z,33.1
2019-04-03T07:12:00.302Z,33.1
2019-04-03T07:12:51.099Z,33.3
2019-04-03T07:13:37.698Z,33.4
2019-04-03T07:14:31.615Z,33.6
2019-04-03T07:15:18.745Z,33.7
2019-04-03T07:16:08.271Z,33.8
2019-04-03T07:17:05.148Z,34
2019-04-03T07:17:47.718Z,34.2
2019-04-03T07:18:41.531Z,34.3
2019-04-03T07:19:28.344Z,34.5
2019-04-03T07:20:26.474Z,34.7
2019-04-03T07:21:08.373Z,34.9
2019-04-03T07:22:02.197Z,35.1
2019-04-03T07:22:48.938Z,35.3
2019-04-03T07:23:38.503Z,35.3
2019-04-03T07:24:27.991Z,35.4
2019-04-03T07:25:19.040Z,35.6
2019-04-03T07:26:11.291Z,35.7
2019-04-03T07:26:58.736Z,35.9
2019-04-03T07:27:49.252Z,36.1
2019-04-03T07:28:43.148Z,36.3
2019-04-03T07:29:32.314Z,36.4
2019-04-03T07:30:26.019Z,36.6
2019-04-03T07:31:09.655Z,36.8
2019-04-03T07:32:01.747Z,37
2019-04-03T07:32:49.040Z,37.3
2019-04-03T07:33:40.176Z,37.4
2019-04-03T07:34:29.705Z,37.6
2019-04-03T07:35:19.498Z,37.8
2019-04-03T07:36:13.442Z,37.9
2019-04-03T07:36:58.694Z,38.1
2019-04-03T07:37:53.695Z,38.3
2019-04-03T07:38:39.266Z,38.5
2019-04-03T07:39:28.628Z,38.7
2019-04-03T07:40:23.222Z,38.9
2019-04-03T07:41:09.950Z,39.1
2019-04-03T07:42:01.560Z,39.3
2019-04-03T07:42:49.554Z,39.4
2019-04-03T07:43:40.290Z,39.6
2019-04-03T07:44:34.228Z,39.8
2019-04-03T07:45:19.460Z,39.9
2019-04-03T07:46:10.312Z,40.1
2019-04-03T07:47:05.717Z,40.3
2019-04-03T07:47:49.625Z,40.4
2019-04-03T07:48:44.040Z,40.6
2019-04-03T07:49:29.500Z,40.8
2019-04-03T07:50:21.136Z,40.9
2019-04-03T07:51:13.377Z,41.1
2019-04-03T07:52:00.461Z,41.2
2019-04-03T07:52:54.545Z,41.4
2019-04-03T07:53:40.104Z,41.5
2019-04-03T07:54:33.020Z,41.7
2019-04-03T07:55:19.737Z,41.9
2019-04-03T07:56:10.322Z,42
2019-04-03T07:57:03.345Z,42.3
2019-04-03T07:57:50.805Z,42.4
2019-04-03T07:58:41.127Z,42.5
2019-04-03T07:59:34.705Z,42.7
2019-04-03T08:00:21.568Z,42.9
2019-04-03T08:01:19.799Z,43
2019-04-03T08:02:01.902Z,43.3
2019-04-03T08:02:56.249Z,43.4
2019-04-03T08:03:42.065Z,43.6
2019-04-03T08:05:44.827Z,43.8
2019-04-03T08:06:05.212Z,44.2
2019-04-03T08:06:46.372Z,44.2
2019-04-03T08:07:36.457Z,44.3
2019-04-03T08:08:27.638Z,44.5
2019-04-03T08:09:17.644Z,44.6
2019-04-03T08:10:07.822Z,44.9
2019-04-03T08:10:57.529Z,45
2019-04-03T08:11:46.061Z,45.2
2019-04-03T08:12:41.789Z,45.4
2019-04-03T08:13:27.227Z,45.5
2019-04-03T08:14:20.721Z,45.7
2019-04-03T08:15:07.414Z,45.8
2019-04-03T08:15:57.584Z,45.9
2019-04-03T08:16:56.099Z,45.9
2019-04-03T08:17:36.963Z,46
2019-04-03T08:18:29.085Z,46.1
2019-04-03T08:19:17.879Z,46.2
2019-04-03T08:20:08.142Z,46.3
2019-04-03T08:21:05.221Z,46.4
2019-04-03T08:21:48.063Z,46.7
2019-04-03T08:22:41.669Z,46.8
2019-04-03T08:23:27.729Z,47.1
2019-04-03T08:24:18.637Z,47.2
2019-04-03T08:25:13.093Z,47.4
2019-04-03T08:26:01.151Z,47.5
2019-04-03T08:26:52.162Z,47.6
2019-04-03T08:27:38.047Z,47.7
2019-04-03T08:28:35.911Z,47.8
2019-04-03T08:29:18.848Z,47.8
2019-04-03T08:30:13.407Z,47.8
2019-04-03T08:30:58.568Z,47.8
2019-04-03T08:31:54.720Z,47.8
2019-04-03T08:32:39.682Z,47.9
2019-04-03T08:33:37.259Z,48
2019-04-03T08:34:24.529Z,48.1
2019-04-03T08:35:29.166Z,48.3
2019-04-03T08:36:00.052Z,48.5
2019-04-03T08:36:49.083Z,48.7
2019-04-03T08:37:44.549Z,48.9
2019-04-03T08:38:30.105Z,49.2
2019-04-03T08:39:23.884Z,49.4
2019-04-03T08:40:09.100Z,49.5
2019-04-03T08:41:05.241Z,49.6
2019-04-03T08:41:49.719Z,49.7
2019-04-03T08:42:40.073Z,49.8
2019-04-03T08:43:33.622Z,49.9
2019-04-03T08:44:19.027Z,50.1
2019-04-03T08:45:14.473Z,50.3
2019-04-03T08:46:00.010Z,50.4
2019-04-03T08:46:51.483Z,50.5
2019-04-03T08:47:48.035Z,50.6
2019-04-03T08:48:29.525Z,50.8
2019-04-03T08:49:19.780Z,50.9
2019-04-03T08:50:10.461Z,51.1
2019-04-03T08:51:06.604Z,51.2
2019-04-03T08:51:50.212Z,51.4
2019-04-03T08:52:44.700Z,51.6
2019-04-03T08:53:30.484Z,51.8
2019-04-03T08:55:14.563Z,52.1
2019-04-03T08:56:03.034Z,52.3
2019-04-03T08:57:41.040Z,52.5
2019-04-03T08:58:33.698Z,52.6
2019-04-03T08:59:20.956Z,52.8
2019-04-03T09:00:11.236Z,52.9
2019-04-03T09:01:01.032Z,53.1
2019-04-03T09:01:51.199Z,53.3
2019-04-03T09:02:45.347Z,53.5
2019-04-03T09:03:30.203Z,53.6
2019-04-03T09:04:24.261Z,53.7
2019-04-03T09:05:20.217Z,53.8
2019-04-03T09:06:03.153Z,54
2019-04-03T09:06:55.402Z,54.1
2019-04-03T09:07:42.284Z,54.3
2019-04-03T09:08:33.114Z,54.4
2019-04-03T09:09:19.623Z,54.6
2019-04-03T09:10:11.601Z,54.8
2019-04-03T09:11:02.624Z,54.7
2019-04-03T09:11:50.950Z,54.6
2019-04-03T09:12:44.392Z,54.6
2019-04-03T09:13:31.271Z,54.8
2019-04-03T09:14:28.094Z,54.9
2019-04-03T09:15:11.846Z,55.2
2019-04-03T09:16:06.133Z,55.4
2019-04-03T09:16:52.166Z,55.6
2019-04-03T09:17:42.430Z,55.6
2019-04-03T09:18:38.746Z,55.4
2019-04-03T09:19:23.690Z,55.2
2019-04-03T09:20:15.808Z,55
2019-04-03T09:21:02.050Z,54.8
2019-04-03T09:21:57.115Z,54.8
2019-04-03T09:22:41.973Z,55
2019-04-03T09:23:31.934Z,55.2
2019-04-03T09:24:22.360Z,55.4
2019-04-03T09:25:15.647Z,55.4
2019-04-03T09:26:05.881Z,55.1
2019-04-03T09:26:52.195Z,54.8
2019-04-03T09:27:46.325Z,54.4
2019-04-03T09:28:32.739Z,54.1
2019-04-03T09:29:21.667Z,53.9
2019-04-03T09:30:16.705Z,53.9
2019-04-03T09:31:02.846Z,54.1
2019-04-03T09:32:00.380Z,54.1
2019-04-03T09:32:43.726Z,54.1
2019-04-03T09:33:36.080Z,54.1
2019-04-03T09:34:28.566Z,54.1
2019-04-03T09:35:13.584Z,53.8
2019-04-03T09:36:10.772Z,53.6
2019-04-03T09:36:53.119Z,53.4
2019-04-03T09:37:48.769Z,53.3
2019-04-03T09:38:40.489Z,53.1
2019-04-03T09:39:23.421Z,52.8
2019-04-03T09:40:17.828Z,52.6
2019-04-03T09:41:03.470Z,52.3
2019-04-03T09:41:55.412Z,52.1
2019-04-03T09:43:34.368Z,51.9
2019-04-03T09:46:53.567Z,52
2019-04-03T09:47:43.314Z,52.1
2019-04-03T09:48:33.120Z,52.3
2019-04-03T09:49:24.944Z,52.3
2019-04-03T09:50:18.558Z,52.1
2019-04-03T09:51:04.307Z,52
2019-04-03T09:51:59.199Z,52
2019-04-03T09:53:34.484Z,53.5
2019-04-03T09:54:28.760Z,54.3
2019-04-03T09:55:14.249Z,55.5
2019-04-03T09:56:09.305Z,56.1
2019-04-03T09:57:11.558Z,56.4
2019-04-03T09:57:45.556Z,56.8
2019-04-03T09:58:38.536Z,57.1
2019-04-03T09:59:25.433Z,57.5
2019-04-03T10:00:18.258Z,57.9
2019-04-03T10:01:05.030Z,58.4
2019-04-03T10:01:55.431Z,58.8
2019-04-03T10:02:45.415Z,59.1
2019-04-03T10:03:38.180Z,59.3
2019-04-03T10:06:35.149Z,59.7
2019-04-03T10:07:09.868Z,59.9
2019-04-03T10:07:58.307Z,59.9
2019-04-03T10:08:48.090Z,60.1
2019-04-03T10:09:46.642Z,60.2
2019-04-03T10:10:30.319Z,60.3
2019-04-03T10:11:40.685Z,60.4
2019-04-03T10:12:08.237Z,60.5
2019-04-03T10:13:00.500Z,60.5
2019-04-03T10:13:48.852Z,59.9
2019-04-03T10:14:38.237Z,59.1
2019-04-03T10:15:31.928Z,58.8
2019-04-03T10:16:21.950Z,58.6
2019-04-03T10:17:13.125Z,59.1
2019-04-03T10:17:58.092Z,59.5
2019-04-03T10:18:50.316Z,59.9
2019-04-03T10:19:38.502Z,60.2
2019-04-03T10:20:28.740Z,60.1
2019-04-03T10:21:37.895Z,60.1
2019-04-03T10:22:08.992Z,59.8
2019-04-03T10:23:02.391Z,59.7
2019-04-03T10:23:47.766Z,59.5
2019-04-03T10:24:39.222Z,59.4
2019-04-03T10:25:29.460Z,59.4
2019-04-03T10:26:18.624Z,59.3
2019-04-03T10:27:12.607Z,59.1
2019-04-03T10:27:58.970Z,59.1
2019-04-03T10:28:54.867Z,59.3
2019-04-03T10:29:55.606Z,59.6
2019-04-03T10:30:30.074Z,59.2
2019-04-03T10:31:19.582Z,58.6
2019-04-03T10:32:09.339Z,57.8
2019-04-03T10:33:03.611Z,57.4
2019-04-03T10:33:49.159Z,57.4
2019-04-03T10:35:46.871Z,58.4
2019-04-03T10:36:33.736Z,58.6
2019-04-03T10:37:09.676Z,58.8
2019-04-03T10:38:00.299Z,59
2019-04-03T10:39:04.622Z,59.3
2019-04-03T10:39:46.832Z,59.6
2019-04-03T10:40:31.446Z,59.9
2019-04-03T10:41:20.016Z,60.2
2019-04-03T10:42:10.671Z,60.5
2019-04-03T10:43:09.068Z,60.7
2019-04-03T10:43:50.438Z,60.9
2019-04-03T10:44:40.020Z,61.1
2019-04-03T10:45:30.105Z,61.4
2019-04-03T10:46:24.188Z,61.4
2019-04-03T10:47:10.043Z,61.2
2019-04-03T10:48:02.849Z,60.9
2019-04-03T10:48:50.006Z,60.8
2019-04-03T10:49:40.861Z,60.9
2019-04-03T10:50:31.078Z,61.3
2019-04-03T10:51:20.546Z,61.6
2019-04-03T10:52:14.482Z,61.7
2019-04-03T10:53:00.474Z,61.6
2019-04-03T10:53:55.709Z,60.9
2019-04-03T10:54:44.174Z,59.6
2019-04-03T10:55:35.238Z,58.6
2019-04-03T10:56:20.708Z,57.8
2019-04-03T10:57:11.172Z,57.7
2019-04-03T10:58:10.717Z,58.3
2019-04-03T10:59:08.808Z,59.6
2019-04-03T10:59:41.270Z,60.8
2019-04-03T11:00:34.882Z,60.9
2019-04-03T11:01:21.266Z,60.6
2019-04-03T11:02:11.587Z,60.4
2019-04-03T11:03:00.848Z,60.4
2019-04-03T11:03:50.201Z,60.8
2019-04-03T11:04:40.192Z,61.3
2019-04-03T11:05:31.999Z,61.8
2019-04-03T11:06:22.359Z,62.1
2019-04-03T11:07:10.598Z,62.4
2019-04-03T11:08:01.498Z,62.6
2019-04-03T11:08:52.091Z,62.8
2019-04-03T11:09:41.873Z,62.8
2019-04-03T11:10:32.734Z,62.9
2019-04-03T11:11:21.795Z,63.1
2019-04-03T11:12:15.249Z,63.2
2019-04-03T11:13:05.817Z,63.3
2019-04-03T11:13:51.928Z,63.3
2019-04-03T11:14:46.041Z,63.1
2019-04-03T11:15:33.050Z,62.8
2019-04-03T11:16:22.274Z,62.6
2019-04-03T11:17:30.087Z,62.7
2019-04-03T11:18:03.159Z,62.9
2019-04-03T11:19:27.794Z,62.9
2019-04-03T11:19:48.382Z,63
2019-04-03T11:20:36.383Z,63
2019-04-03T11:21:22.591Z,63
2019-04-03T11:24:42.835Z,62.9
2019-04-03T11:24:56.299Z,63.2
2019-04-03T11:25:54.601Z,63.2
2019-04-03T11:26:37.236Z,63.1
2019-04-03T11:27:51.700Z,62.9
2019-04-03T11:28:17.442Z,62.8
2019-04-03T11:29:11.640Z,62.7
2019-04-03T11:29:58.213Z,62.4
2019-04-03T11:30:46.628Z,62.4
2019-04-03T11:31:48.965Z,62.4
2019-04-03T11:32:29.379Z,62.6
2019-04-03T11:33:20.796Z,62.7
2019-04-03T11:34:07.102Z,62.9
2019-04-03T11:35:00.083Z,62.9
2019-04-03T11:35:47.298Z,63.1
2019-04-03T11:36:37.045Z,63.1